WSSS/SIN METAR and TAF weather

Enter ICAO airport designator
Station Type Date Time Source
WSSS METAR 2020/08/15 10:00 UTC NOAA

WSSS 151000Z 13005KT 080V180 9999 FEW018TCU SCT160 BKN300 30/24 Q1008 NOSIG


Station Type Date Time Source
WSSS Decoded METAR 2020/08/15 10:00 UTC NOAA

Singapore / Changi Airport, Singapore (WSSS) 01-22N 103-59E 16M
Aug 15, 2020 - 06:00 AM EDT / 2020.08.15 1000 UTC
Wind: from the SE (130 degrees) at 6 MPH (5 KT) (direction variable):0
Visibility: greater than 7 mile(s):0
Sky conditions: mostly cloudy
Weather: Towering cumulus clouds observed
Temperature: 86 F (30 C)
Heat index: 95.0 F (35.0 C):1
Dew Point: 75 F (24 C)
Relative Humidity: 70%
Pressure (altimeter): 29.77 in. Hg (1008 hPa)
ob: WSSS 151000Z 13005KT 080V180 9999 FEW018TCU SCT160 BKN300 30/24 Q1008 NOSIG
cycle: 10

Station Type Date Time Source
WSSS TAF 2020/08/15 08:12 UTC NOAA

TAF
AMD WSSS 150800Z 1508/1612 16006KT 9999 FEW015 SCT020

Example: see airport list